EST,Max TemperatureF,Mean TemperatureF,Min TemperatureF,Max Dew PointF,MeanDew PointF,Min DewpointF,Max Humidity, Mean Humidity, Min Humidity, Max Sea Level PressureIn, Mean Sea Level PressureIn, Min Sea Level PressureIn, Max VisibilityMiles, Mean VisibilityMiles, Min VisibilityMiles, Max Wind SpeedMPH, Mean Wind SpeedMPH, Max Gust SpeedMPH,PrecipitationIn, CloudCover, Events, WindDirDegrees
2013-11-1,73,62,51,59,51,43,84,60,35,29.73,29.64,29.58,10,10,10,30,10,43,0.26,4,Rain,225
2013-11-2,66,55,44,48,43,37,93,68,42,29.84,29.72,29.66,10,10,10,17,4,23,0.00,4,,290
2013-11-3,52,43,34,41,29,18,83,58,32,30.49,30.15,29.86,10,10,10,20,10,26,T,4,Rain,349
2013-11-4,46,37,28,26,19,16,64,48,31,30.66,30.62,30.52,10,10,10,14,3,18,0.00,0,,7
2013-11-5,57,46,35,43,34,24,80,66,51,30.65,30.58,30.48,10,10,9,10,2,14,0.00,5,,111
2013-11-6,65,57,48,49,46,43,86,69,52,30.48,30.25,30.06,10,10,10,16,5,20,0.00,5,,177
2013-11-7,59,51,43,55,48,25,86,70,53,30.03,29.92,29.85,10,9,2,22,8,28,0.12,7,Rain,268
2013-11-8,49,42,35,31,27,24,70,56,42,30.29,30.16,30.04,10,10,10,24,9,31,0.00,3,,283
2013-11-9,51,41,31,31,28,25,82,61,39,30.34,30.21,30.00,10,10,10,14,5,22,0.00,1,,213
2013-11-10,55,44,32,36,29,25,85,59,32,30.16,30.01,29.93,10,10,9,30,10,38,0.00,4,,295
2013-11-11,52,44,35,34,30,26,64,53,41,30.26,30.14,29.99,10,10,10,16,7,22,0.00,5,,242
2013-11-12,52,41,29,35,21,10,67,52,37,30.37,30.20,29.98,10,10,4,22,11,26,T,4,Rain-Snow,332
2013-11-13,41,34,26,20,15,9,63,49,34,30.46,30.40,30.34,10,10,10,21,9,29,0.00,0,,319
2013-11-14,55,41,26,23,16,10,72,45,18,30.32,30.27,30.22,10,10,10,16,5,21,0.00,0,,225
2013-11-15,57,43,28,30,25,19,85,58,30,30.28,30.23,30.19,10,10,10,6,0,7,0.00,1,,250
2013-11-16,60,50,39,48,42,35,93,72,51,30.35,30.29,30.24,10,8,4,10,2,15,0.03,5,Rain,162
2013-11-17,63,57,51,57,52,48,96,84,72,30.25,30.07,29.71,10,7,1,18,7,29,0.01,8,Rain,159
2013-11-18,64,56,47,59,38,24,93,60,27,29.90,29.73,29.63,10,10,2,35,13,53,0.23,3,Rain,260
2013-11-19,48,41,34,29,23,20,53,45,37,30.40,30.16,29.91,10,10,10,28,14,33,0.00,4,,322
2013-11-20,47,37,27,23,16,9,75,49,23,30.61,30.53,30.40,10,10,10,12,3,15,0.00,0,,67
2013-11-21,49,37,24,34,25,14,68,59,49,30.62,30.53,30.40,10,10,10,6,1,8,0.00,5,,336
2013-11-22,54,49,44,48,42,34,93,79,65,30.37,30.15,29.98,10,9,6,18,2,25,0.03,7,Rain,272
2013-11-23,52,40,27,45,24,4,83,61,38,30.15,30.08,30.00,10,10,9,30,15,39,T,2,,303
2013-11-24,30,25,20,11,1,-2,50,39,27,30.47,30.32,30.16,10,10,10,24,17,31,0.00,1,,311
2013-11-25,34,27,19,15,11,10,67,53,38,30.54,30.44,30.35,20,10,10,15,7,20,0.00,1,,241
2013-11-26,39,36,32,38,24,11,96,67,38,30.32,30.16,29.67,10,7,2,13,5,17,0.92,8,Rain-Snow,105
2013-11-27,45,38,30,43,34,15,96,74,52,29.91,29.56,29.45,10,7,2,31,14,40,0.56,7,Rain-Snow,301
2013-11-28,35,32,28,19,16,13,63,53,43,30.49,30.30,29.95,10,10,9,26,11,35,0.00,5,,300
2013-11-29,39,32,24,21,18,16,81,63,44,30.76,30.62,30.48,10,10,10,16,4,23,0.00,3,,329
2013-11-30,38,28,18,25,19,14,84,67,49,30.76,30.63,30.39,10,10,10,9,2,15,0.00,2,Rain,126